WXM80 ListenWXM80 Stop

You find our weather info also at:

UK Metoffice

WeatherCloud

Weather Underground

Northeastern Weather Network

AWEKAS

Citizen Weather Observer Program (CWOP)

HAMweather, WeatherForYou, PWS Weather


Weather Underground History page Text

Daily Summary for March 17, 2016 Units:  English    Metric   Both
« Previous Day
Next Day »
Daily Weekly Monthly Yearly Custom
  High: Low: Average:
Temperature: 65.4 °F 40.7 °F 51.1 °F
Dew Point: 52.1 °F 34.1 °F 41.7 °F
Humidity: 97 % 34 % 73 %
Wind Speed: 15.0 mph 0.0 mph 3 mph
Wind Gust: 21.9 mph - -
Wind:- - SW
Pressure: 29.89 in 29.72 in -
Precipitation: 0.01 in    
Historical Graphs
 
 
Tabular Data for March 17, 2016
Time Temperature Dew Point Pressure Wind Wind Speed Wind Gust Humidity Rainfall Rate (Hourly)
00:00 47.3 °F 44.5 °F 29.84 in Calm     90 % 0.00 in
00:02 47.3 °F 44.5 °F 29.84 in SE 1.0 mph 1.2 mph 90 % 0.00 in
00:07 47.2 °F 44.4 °F 29.84 in SE 1.3 mph 2.3 mph 90 % 0.00 in
00:12 47.1 °F 44.0 °F 29.84 in Calm     89 % 0.00 in
00:17 46.9 °F 43.8 °F 29.84 in SE 1.5 mph 3.5 mph 89 % 0.00 in
00:22 46.8 °F 43.7 °F 29.84 in NNE 2.4 mph 3.5 mph 89 % 0.00 in
00:27 46.7 °F 43.9 °F 29.89 in North 9.1 mph 16.0 mph 90 % 0.00 in
00:32 46.1 °F 43.3 °F 29.88 in North 6.1 mph 11.5 mph 90 % 0.00 in
00:37 45.6 °F 43.1 °F 29.87 in NNE 7.2 mph 10.4 mph 91 % 0.00 in
00:42 45.3 °F 42.8 °F 29.87 in NNE 6.0 mph 10.4 mph 91 % 0.00 in
00:47 45.2 °F 43.0 °F 29.87 in NE 5.6 mph 9.2 mph 92 % 0.00 in
00:53 45.1 °F 42.9 °F 29.87 in NNE 4.5 mph 7.0 mph 92 % 0.00 in
00:58 45.1 °F 43.2 °F 29.86 in NE 3.1 mph 4.6 mph 93 % 0.00 in
01:03 45.0 °F 43.1 °F 29.85 in East 3.7 mph 5.0 mph 93 % 0.00 in
01:08 45.0 °F 43.1 °F 29.84 in East 4.5 mph 6.0 mph 93 % 0.00 in
01:13 44.9 °F 43.0 °F 29.84 in East 3.1 mph 6.0 mph 93 % 0.00 in
01:18 44.8 °F 42.9 °F 29.84 in ESE 1.6 mph 3.5 mph 93 % 0.00 in
01:23 44.8 °F 42.9 °F 29.83 in ESE 0.7 mph 3.5 mph 93 % 0.00 in
01:28 44.7 °F 42.8 °F 29.83 in SE 1.7 mph 3.5 mph 93 % 0.00 in
01:33 44.7 °F 42.8 °F 29.83 in SE 1.2 mph 2.3 mph 93 % 0.00 in
01:38 44.7 °F 42.8 °F 29.84 in Calm     93 % 0.00 in
01:44 44.6 °F 42.7 °F 29.84 in Calm     93 % 0.00 in
01:49 44.5 °F 42.6 °F 29.89 in North 5.7 mph 8.1 mph 93 % 0.00 in
01:54 44.5 °F 42.9 °F 29.88 in NNE 2.9 mph 5.8 mph 94 % 0.00 in
01:59 44.4 °F 42.8 °F 29.88 in NNE 2.5 mph 4.6 mph 94 % 0.00 in
02:04 44.4 °F 42.8 °F 29.88 in NNE 0.3 mph 3.5 mph 94 % 0.00 in
02:09 44.4 °F 42.8 °F 29.88 in NNE 0.1 mph   94 % 0.00 in
02:19 44.4 °F 42.8 °F 29.88 in Calm     94 % 0.00 in
02:24 44.5 °F 42.9 °F 29.87 in SSE 2.4 mph 4.0 mph 94 % 0.00 in
02:29 44.5 °F 42.9 °F 29.87 in SSE 1.1 mph 2.3 mph 94 % 0.00 in
02:35 44.5 °F 42.9 °F 29.86 in East 1.0 mph 2.0 mph 94 % 0.00 in
02:40 44.4 °F 42.8 °F 29.86 in Calm     94 % 0.00 in
02:45 44.3 °F 42.7 °F 29.86 in Calm     94 % 0.00 in
02:50 44.3 °F 42.7 °F 29.87 in East 0.2 mph 1.2 mph 94 % 0.00 in
02:55 44.2 °F 42.6 °F 29.86 in Calm     94 % 0.00 in
03:00 44.1 °F 42.5 °F 29.86 in East 0.1 mph 1.2 mph 94 % 0.00 in
03:05 44.0 °F 42.4 °F 29.86 in Calm     94 % 0.00 in
03:10 44.0 °F 42.4 °F 29.86 in East 0.1 mph 1.2 mph 94 % 0.00 in
03:15 43.9 °F 42.3 °F 29.85 in Calm     94 % 0.00 in
03:20 43.8 °F 42.2 °F 29.85 in Calm     94 % 0.00 in
03:26 43.7 °F 41.8 °F 29.85 in Calm     93 % 0.00 in
03:31 43.6 °F 41.7 °F 29.84 in Calm     93 % 0.00 in
03:36 43.4 °F 41.5 °F 29.84 in Calm     93 % 0.00 in
03:41 43.3 °F 41.4 °F 29.84 in Calm     93 % 0.00 in
03:46 43.2 °F 41.3 °F 29.84 in Calm     93 % 0.00 in
03:51 43.1 °F 41.2 °F 29.84 in Calm     93 % 0.00 in
03:56 42.9 °F 41.0 °F 29.84 in Calm     93 % 0.00 in
04:01 42.8 °F 40.9 °F 29.84 in SW 1.4 mph 2.3 mph 93 % 0.00 in
04:06 42.7 °F 40.8 °F 29.84 in SW 1.3 mph 2.0 mph 93 % 0.00 in
04:11 42.6 °F 40.7 °F 29.84 in Calm     93 % 0.00 in
04:17 42.5 °F 40.6 °F 29.84 in Calm   1.2 mph 93 % 0.00 in
04:22 42.4 °F 40.5 °F 29.84 in SW 0.9 mph 2.3 mph 93 % 0.00 in
04:27 42.3 °F 40.4 °F 29.84 in Calm   1.2 mph 93 % 0.00 in
04:32 42.2 °F 40.6 °F 29.84 in Calm     94 % 0.00 in
04:37 42.1 °F 40.5 °F 29.84 in Calm   1.2 mph 94 % 0.00 in
04:42 42.0 °F 40.4 °F 29.83 in Calm     94 % 0.00 in
04:47 41.9 °F 40.3 °F 29.83 in Calm     94 % 0.00 in
04:52 41.8 °F 40.2 °F 29.83 in Calm     94 % 0.00 in
04:57 41.7 °F 40.1 °F 29.83 in Calm     94 % 0.00 in
05:08 41.4 °F 39.8 °F 29.83 in Calm     94 % 0.00 in
05:13 41.3 °F 39.4 °F 29.83 in Calm     93 % 0.00 in
05:18 41.2 °F 39.6 °F 29.83 in Calm     94 % 0.00 in
05:23 41.1 °F 39.5 °F 29.83 in Calm     94 % 0.00 in
05:28 41.0 °F 39.4 °F 29.83 in SW 0.3 mph 1.2 mph 94 % 0.00 in
05:33 40.8 °F 39.2 °F 29.84 in SW 0.3 mph 1.2 mph 94 % 0.00 in
05:38 40.7 °F 39.1 °F 29.83 in SW 0.6 mph 2.3 mph 94 % 0.00 in
05:43 40.7 °F 39.1 °F 29.84 in SW 1.2 mph 2.3 mph 94 % 0.00 in
05:48 40.8 °F 39.5 °F 29.84 in West 2.2 mph 3.5 mph 95 % 0.00 in
05:54 40.9 °F 39.6 °F 29.84 in West 1.1 mph 2.3 mph 95 % 0.00 in
05:59 41.0 °F 39.7 °F 29.84 in West 0.5 mph 3.5 mph 95 % 0.00 in
06:04 41.0 °F 39.7 °F 29.84 in West 0.6 mph 1.2 mph 95 % 0.00 in
06:09 41.0 °F 39.7 °F 29.84 in West 0.7 mph 2.3 mph 95 % 0.00 in
06:14 41.1 °F 39.8 °F 29.85 in West 0.6 mph 2.3 mph 95 % 0.00 in
06:19 41.1 °F 39.8 °F 29.85 in West 0.6 mph 2.0 mph 95 % 0.00 in
06:24 41.2 °F 40.1 °F 29.85 in Calm     96 % 0.00 in
06:29 41.2 °F 40.1 °F 29.85 in Calm     96 % 0.00 in
06:34 41.2 °F 40.1 °F 29.85 in West 2.1 mph 4.0 mph 96 % 0.00 in
06:39 41.3 °F 40.2 °F 29.85 in West 0.4 mph 2.3 mph 96 % 0.00 in
06:45 41.3 °F 40.2 °F 29.85 in West 0.2 mph 2.3 mph 96 % 0.00 in
06:50 41.3 °F 40.2 °F 29.85 in WSW 2.5 mph 3.5 mph 96 % 0.00 in
07:00 41.6 °F 40.5 °F 29.85 in WSW 2.3 mph 4.6 mph 96 % 0.00 in
07:05 41.7 °F 40.6 °F 29.85 in SW 3.1 mph 4.6 mph 96 % 0.00 in
07:10 41.9 °F 40.8 °F 29.85 in SW 1.4 mph 3.5 mph 96 % 0.00 in
07:15 42.0 °F 40.9 °F 29.85 in SW 2.4 mph 4.6 mph 96 % 0.00 in
07:20 42.0 °F 40.9 °F 29.85 in WSW 0.4 mph 2.3 mph 96 % 0.00 in
07:25 42.2 °F 41.4 °F 29.85 in WSW 0.3 mph 1.2 mph 97 % 0.00 in
07:30 42.3 °F 41.2 °F 29.85 in Calm   1.2 mph 96 % 0.00 in
07:36 42.4 °F 41.6 °F 29.85 in WSW 1.5 mph 2.3 mph 97 % 0.00 in
07:41 42.6 °F 41.8 °F 29.84 in WSW 0.3 mph 1.2 mph 97 % 0.00 in
07:46 42.8 °F 42.0 °F 29.85 in WSW 0.6 mph 2.3 mph 97 % 0.00 in
07:51 43.0 °F 42.2 °F 29.85 in WSW 1.0 mph 3.5 mph 97 % 0.00 in
08:00 43.6 °F 42.8 °F 29.85 in WSW 1.7 mph 2.3 mph 97 % 0.00 in
08:05 43.9 °F 43.1 °F 29.85 in WSW 0.5 mph 2.3 mph 97 % 0.00 in
08:10 44.2 °F 43.4 °F 29.85 in WSW 0.1 mph 3.5 mph 97 % 0.00 in
08:16 44.5 °F 43.7 °F 29.85 in WSW 2.6 mph 3.5 mph 97 % 0.00 in
08:21 44.8 °F 44.0 °F 29.84 in WSW 3.2 mph 6.9 mph 97 % 0.00 in
08:26 45.2 °F 44.4 °F 29.84 in SW 1.6 mph 3.5 mph 97 % 0.00 in
08:31 45.5 °F 44.7 °F 29.84 in WSW 1.6 mph 5.8 mph 97 % 0.00 in
08:36 45.9 °F 45.1 °F 29.84 in SW 1.5 mph 3.5 mph 97 % 0.00 in
08:41 46.2 °F 45.4 °F 29.84 in WSW 2.2 mph 3.5 mph 97 % 0.00 in
08:46 46.6 °F 45.8 °F 29.84 in SSW 3.7 mph 5.8 mph 97 % 0.00 in
08:51 47.0 °F 46.2 °F 29.84 in West 2.3 mph 3.5 mph 97 % 0.00 in
08:56 47.3 °F 46.5 °F 29.83 in West 1.9 mph 3.5 mph 97 % 0.00 in
09:01 47.8 °F 47.0 °F 29.83 in SSE 0.4 mph 2.3 mph 97 % 0.00 in
09:07 48.3 °F 47.5 °F 29.83 in WSW 3.4 mph 4.6 mph 97 % 0.00 in
09:12 48.8 °F 47.7 °F 29.84 in WSW 2.9 mph 5.0 mph 96 % 0.00 in
09:17 49.3 °F 47.9 °F 29.83 in South 1.4 mph 3.5 mph 95 % 0.00 in
09:22 49.9 °F 48.5 °F 29.83 in SSW 2.4 mph 6.9 mph 95 % 0.00 in
09:27 50.4 °F 48.5 °F 29.83 in SW 5.8 mph 8.1 mph 93 % 0.00 in
09:32 50.8 °F 48.3 °F 29.82 in WNW 2.0 mph 4.6 mph 91 % 0.00 in
09:37 51.2 °F 48.7 °F 29.82 in NNW 1.4 mph 5.8 mph 91 % 0.00 in
09:47 52.2 °F 49.4 °F 29.81 in WSW 0.5 mph 2.0 mph 90 % 0.00 in
09:52 52.7 °F 49.5 °F 29.82 in SW 3.6 mph 8.1 mph 89 % 0.00 in
09:58 53.3 °F 49.5 °F 29.82 in West 1.6 mph 3.5 mph 87 % 0.00 in
10:03 53.8 °F 49.7 °F 29.82 in SW 2.8 mph 4.6 mph 86 % 0.00 in
10:08 54.2 °F 49.5 °F 29.82 in NW 1.6 mph 3.5 mph 84 % 0.00 in
10:13 54.6 °F 49.5 °F 29.82 in West 3.9 mph 8.1 mph 83 % 0.00 in
10:18 55.0 °F 49.6 °F 29.82 in WNW 4.1 mph 6.9 mph 82 % 0.00 in
10:23 55.4 °F 50.0 °F 29.82 in West 4.0 mph 6.9 mph 82 % 0.00 in
10:28 55.6 °F 49.5 °F 29.82 in West 4.2 mph 6.0 mph 80 % 0.00 in
10:33 55.9 °F 49.8 °F 29.82 in WNW 3.4 mph 6.0 mph 80 % 0.00 in
10:38 55.8 °F 49.0 °F 29.81 in NW 3.8 mph 5.0 mph 78 % 0.00 in
10:43 55.8 °F 49.7 °F 29.82 in WNW 3.3 mph 4.0 mph 80 % 0.00 in
10:49 56.2 °F 50.1 °F 29.81 in NW 2.9 mph 3.5 mph 80 % 0.00 in
10:54 56.4 °F 50.0 °F 29.81 in NW 3.5 mph 4.6 mph 79 % 0.00 in
10:59 56.8 °F 51.0 °F 29.81 in WSW 0.7 mph 2.3 mph 81 % 0.00 in
11:04 57.2 °F 50.7 °F 29.80 in WSW 2.0 mph 6.0 mph 79 % 0.00 in
11:09 57.8 °F 51.0 °F 29.80 in WSW 3.8 mph 5.0 mph 78 % 0.00 in
11:14 58.5 °F 51.3 °F 29.80 in WNW 1.1 mph 5.8 mph 77 % 0.00 in
11:19 59.0 °F 51.1 °F 29.80 in WSW 3.2 mph 9.2 mph 75 % 0.00 in
11:24 59.5 °F 51.6 °F 29.80 in WNW 1.5 mph 5.8 mph 75 % 0.00 in
11:29 60.4 °F 52.1 °F 29.80 in WSW 3.9 mph 5.8 mph 74 % 0.00 in
11:34 60.8 °F 51.3 °F 29.79 in WNW 2.6 mph 6.0 mph 71 % 0.00 in
11:40 61.1 °F 51.6 °F 29.79 in WNW 3.2 mph 5.0 mph 71 % 0.00 in
11:45 61.5 °F 51.6 °F 29.79 in WNW 3.5 mph 7.0 mph 70 % 0.00 in
11:50 61.4 °F 51.1 °F 29.79 in West 2.3 mph 4.6 mph 69 % 0.00 in
11:55 61.6 °F 51.3 °F 29.79 in WNW 1.4 mph 3.5 mph 69 % 0.00 in
12:00 62.2 °F 51.9 °F 29.79 in SW 2.3 mph 5.0 mph 69 % 0.00 in
12:05 62.9 °F 50.5 °F 29.79 in NW 2.5 mph 5.8 mph 64 % 0.00 in
12:10 63.6 °F 52.0 °F 29.78 in WNW 0.3 mph 1.2 mph 66 % 0.00 in
12:15 63.9 °F 48.4 °F 29.78 in NW 1.9 mph 4.6 mph 57 % 0.00 in
12:20 64.0 °F 48.0 °F 29.77 in WSW 3.0 mph 4.6 mph 56 % 0.00 in
12:26 64.1 °F 46.1 °F 29.77 in West 4.5 mph 6.9 mph 52 % 0.00 in
12:31 64.3 °F 46.8 °F 29.77 in SW 2.8 mph 6.0 mph 53 % 0.00 in
12:36 64.5 °F 45.4 °F 29.77 in WSW 3.9 mph 6.9 mph 50 % 0.00 in
12:41 64.6 °F 45.5 °F 29.77 in WSW 3.5 mph 8.1 mph 50 % 0.00 in
12:51 64.5 °F 45.4 °F 29.77 in NW 1.8 mph 5.8 mph 50 % 0.00 in
12:56 64.7 °F 48.6 °F 29.76 in North 2.9 mph 5.8 mph 56 % 0.00 in
13:01 64.8 °F 46.8 °F 29.76 in WNW 4.2 mph 6.0 mph 52 % 0.00 in
13:06 65.0 °F 46.4 °F 29.75 in WNW 2.7 mph 7.0 mph 51 % 0.00 in
13:11 65.1 °F 44.9 °F 29.75 in SW 4.8 mph 8.1 mph 48 % 0.00 in
13:17 65.3 °F 42.2 °F 29.75 in West 4.3 mph 8.1 mph 43 % 0.00 in
13:22 65.4 °F 41.7 °F 29.75 in WSW 8.3 mph 11.5 mph 42 % 0.00 in
13:27 65.0 °F 37.4 °F 29.75 in NW 6.5 mph 11.5 mph 36 % 0.00 in
13:32 64.5 °F 36.9 °F 29.74 in SW 6.6 mph 10.4 mph 36 % 0.00 in
13:37 63.9 °F 35.0 °F 29.74 in WSW 7.0 mph 13.8 mph 34 % 0.01 in
13:42 63.4 °F 34.5 °F 29.74 in WSW 3.6 mph 8.0 mph 34 % 0.01 in
13:47 63.2 °F 35.1 °F 29.75 in WSW 3.7 mph 8.1 mph 35 % 0.01 in
13:52 62.7 °F 36.0 °F 29.75 in West 10.5 mph 16.1 mph 37 % 0.01 in
13:57 61.7 °F 40.1 °F 29.76 in NW 7.7 mph 15.0 mph 45 % 0.01 in
14:02 59.9 °F 41.2 °F 29.76 in SSW 9.9 mph 18.4 mph 50 % 0.01 in
14:08 58.2 °F 42.6 °F 29.76 in West 8.9 mph 12.7 mph 56 % 0.01 in
14:13 56.8 °F 43.1 °F 29.75 in West 3.8 mph 9.2 mph 60 % 0.01 in
14:18 56.7 °F 45.1 °F 29.74 in West 2.9 mph 5.0 mph 65 % 0.01 in
14:23 57.2 °F 43.0 °F 29.74 in SW 1.0 mph 3.5 mph 59 % 0.01 in
14:28 57.8 °F 42.2 °F 29.74 in NW 6.9 mph 9.2 mph 56 % 0.01 in
14:33 58.3 °F 40.2 °F 29.74 in SW 8.7 mph 12.7 mph 51 % 0.01 in
14:38 58.4 °F 40.3 °F 29.73 in SSW 1.3 mph 4.0 mph 51 % 0.00 in
14:43 58.9 °F 41.8 °F 29.74 in WSW 6.9 mph 13.0 mph 53 % 0.00 in
14:48 59.8 °F 40.6 °F 29.73 in WNW 6.8 mph 12.7 mph 49 % 0.00 in
14:53 60.4 °F 40.6 °F 29.73 in SW 6.6 mph 10.4 mph 48 % 0.00 in
14:59 60.7 °F 39.8 °F 29.73 in West 6.1 mph 9.0 mph 46 % 0.00 in
15:04 60.5 °F 39.0 °F 29.74 in SW 9.7 mph 14.0 mph 45 % 0.00 in
15:09 60.1 °F 38.1 °F 29.74 in West 7.6 mph 16.0 mph 44 % 0.00 in
15:14 59.6 °F 37.6 °F 29.75 in WNW 9.4 mph 16.1 mph 44 % 0.00 in
15:19 59.1 °F 37.8 °F 29.75 in WSW 7.6 mph 11.5 mph 45 % 0.00 in
15:24 58.7 °F 38.0 °F 29.75 in SW 8.1 mph 17.3 mph 46 % 0.00 in
15:34 58.5 °F 38.3 °F 29.75 in West 8.0 mph 17.3 mph 47 % 0.00 in
15:39 58.0 °F 38.4 °F 29.74 in SSW 10.9 mph 15.0 mph 48 % 0.00 in
15:44 57.5 °F 39.0 °F 29.73 in SSW 5.9 mph 9.2 mph 50 % 0.00 in
15:50 57.6 °F 40.6 °F 29.73 in SW 5.3 mph 10.4 mph 53 % 0.00 in
15:55 57.8 °F 39.3 °F 29.72 in SW 3.5 mph 6.9 mph 50 % 0.00 in
16:00 58.1 °F 39.0 °F 29.72 in SW 7.2 mph 11.5 mph 49 % 0.00 in
16:05 58.3 °F 39.7 °F 29.72 in WSW 7.4 mph 11.5 mph 50 % 0.00 in
16:10 58.7 °F 39.0 °F 29.72 in WSW 5.0 mph 8.1 mph 48 % 0.00 in
16:15 59.0 °F 39.9 °F 29.72 in West 5.6 mph 10.4 mph 49 % 0.00 in
16:20 59.1 °F 39.4 °F 29.72 in WSW 9.5 mph 15.0 mph 48 % 0.00 in
16:25 59.1 °F 38.9 °F 29.72 in SW 8.5 mph 15.0 mph 47 % 0.00 in
16:30 59.2 °F 39.0 °F 29.73 in SW 8.5 mph 11.5 mph 47 % 0.00 in
16:41 59.1 °F 38.3 °F 29.72 in WNW 8.3 mph 16.1 mph 46 % 0.00 in
16:46 59.0 °F 38.2 °F 29.73 in WSW 7.9 mph 13.8 mph 46 % 0.00 in
16:51 59.0 °F 38.8 °F 29.73 in SW 2.8 mph 6.0 mph 47 % 0.00 in
16:56 59.0 °F 39.3 °F 29.73 in SW 7.9 mph 11.5 mph 48 % 0.00 in
17:01 58.9 °F 37.0 °F 29.73 in WNW 7.7 mph 11.5 mph 44 % 0.00 in
17:06 58.7 °F 38.0 °F 29.73 in WSW 5.5 mph 9.2 mph 46 % 0.00 in
17:11 58.6 °F 38.4 °F 29.72 in WNW 3.4 mph 8.0 mph 47 % 0.00 in
17:16 58.4 °F 38.2 °F 29.72 in WSW 8.1 mph 11.5 mph 47 % 0.00 in
17:21 58.2 °F 37.5 °F 29.72 in WSW 3.5 mph 9.0 mph 46 % 0.00 in
17:26 58.1 °F 38.0 °F 29.72 in WSW 5.8 mph 10.0 mph 47 % 0.00 in
17:32 57.8 °F 37.7 °F 29.72 in SW 6.1 mph 9.2 mph 47 % 0.00 in
17:37 57.7 °F 37.6 °F 29.72 in SSW 4.0 mph 6.9 mph 47 % 0.00 in
17:42 57.5 °F 37.9 °F 29.73 in West 3.2 mph 4.6 mph 48 % 0.00 in
17:47 57.3 °F 38.3 °F 29.73 in West 3.9 mph 6.0 mph 49 % 0.00 in
17:52 57.2 °F 38.2 °F 29.73 in SW 4.1 mph 8.1 mph 49 % 0.00 in
17:57 57.0 °F 38.0 °F 29.74 in SW 3.8 mph 5.8 mph 49 % 0.00 in
18:02 56.8 °F 38.3 °F 29.74 in SW 2.7 mph 7.0 mph 50 % 0.00 in
18:07 56.7 °F 38.3 °F 29.74 in WSW 7.3 mph 8.1 mph 50 % 0.00 in
18:12 56.4 °F 38.0 °F 29.75 in SW 9.1 mph 21.9 mph 50 % 0.00 in
18:17 56.2 °F 38.3 °F 29.76 in WSW 13.8 mph 18.0 mph 51 % 0.00 in
18:23 56.0 °F 37.6 °F 29.75 in SW 9.9 mph 19.6 mph 50 % 0.00 in
18:28 55.8 °F 35.9 °F 29.74 in WSW 15.0 mph 20.7 mph 47 % 0.00 in
18:33 55.7 °F 35.2 °F 29.73 in SSW 6.8 mph 13.0 mph 46 % 0.00 in
18:38 55.7 °F 34.1 °F 29.73 in South 5.7 mph 10.4 mph 44 % 0.00 in
18:43 55.5 °F 34.5 °F 29.73 in West 3.3 mph 8.1 mph 45 % 0.00 in
18:48 55.4 °F 34.9 °F 29.73 in SW 3.7 mph 6.9 mph 46 % 0.00 in
18:53 55.3 °F 35.4 °F 29.73 in SW 3.8 mph 5.8 mph 47 % 0.00 in
18:58 55.1 °F 35.2 °F 29.73 in SSW 2.0 mph 4.6 mph 47 % 0.00 in
19:03 55.0 °F 35.7 °F 29.73 in SW 0.2 mph 4.6 mph 48 % 0.00 in
19:08 54.8 °F 35.5 °F 29.73 in SSW 2.2 mph 5.0 mph 48 % 0.00 in
19:14 54.5 °F 35.2 °F 29.73 in SW 0.2 mph 2.3 mph 48 % 0.00 in
19:19 54.2 °F 35.4 °F 29.74 in SW 1.4 mph 3.5 mph 49 % 0.00 in
19:24 54.0 °F 35.8 °F 29.74 in WSW 3.5 mph 4.6 mph 50 % 0.00 in
19:29 53.8 °F 35.6 °F 29.74 in SSW 3.2 mph 6.0 mph 50 % 0.00 in
19:34 53.5 °F 35.8 °F 29.74 in SW 4.6 mph 8.1 mph 51 % 0.00 in
19:39 53.3 °F 36.1 °F 29.74 in SSW 2.7 mph 5.8 mph 52 % 0.00 in
19:44 53.1 °F 36.4 °F 29.74 in SSW 2.4 mph 3.5 mph 53 % 0.00 in
19:49 53.0 °F 36.8 °F 29.74 in SW 2.8 mph 4.6 mph 54 % 0.00 in
19:54 52.8 °F 36.6 °F 29.74 in SSW 2.1 mph 2.3 mph 54 % 0.00 in
19:59 52.6 °F 36.9 °F 29.74 in SW 1.9 mph 4.0 mph 55 % 0.00 in
20:05 52.4 °F 37.2 °F 29.74 in SW 2.8 mph 3.5 mph 56 % 0.00 in
20:10 52.3 °F 37.5 °F 29.75 in SW 4.2 mph 4.6 mph 57 % 0.00 in
20:15 52.2 °F 37.9 °F 29.75 in WSW 2.7 mph 5.8 mph 58 % 0.00 in
20:20 52.0 °F 38.1 °F 29.75 in SSW 1.7 mph 5.8 mph 59 % 0.00 in
20:25 51.9 °F 38.4 °F 29.75 in SW 2.8 mph 3.5 mph 60 % 0.00 in
20:30 51.8 °F 38.8 °F 29.75 in WSW 2.4 mph 5.0 mph 61 % 0.00 in
20:35 51.7 °F 38.7 °F 29.75 in SSW 2.5 mph 6.9 mph 61 % 0.00 in
20:40 51.5 °F 38.9 °F 29.76 in SW 5.0 mph 8.1 mph 62 % 0.00 in
20:45 51.3 °F 39.1 °F 29.76 in SW 4.3 mph 5.0 mph 63 % 0.00 in
20:50 51.2 °F 39.0 °F 29.77 in WSW 4.3 mph 8.1 mph 63 % 0.00 in
20:55 51.0 °F 39.2 °F 29.77 in SSW 4.6 mph 6.0 mph 64 % 0.00 in
21:00 50.9 °F 39.1 °F 29.77 in SW 2.2 mph 3.5 mph 64 % 0.00 in
21:05 50.9 °F 39.5 °F 29.78 in WNW 1.7 mph 5.8 mph 65 % 0.00 in
21:11 50.8 °F 39.5 °F 29.78 in WSW 3.4 mph 5.0 mph 65 % 0.00 in
21:16 50.8 °F 39.8 °F 29.78 in SSW 3.8 mph 5.8 mph 66 % 0.00 in
21:21 50.8 °F 39.8 °F 29.79 in WNW 0.6 mph 3.5 mph 66 % 0.00 in
21:26 50.7 °F 39.7 °F 29.78 in WSW 3.8 mph 8.1 mph 66 % 0.00 in
21:31 50.6 °F 40.0 °F 29.78 in SSW 1.6 mph 3.5 mph 67 % 0.00 in
21:36 50.5 °F 39.9 °F 29.78 in SW 1.5 mph 3.5 mph 67 % 0.00 in
21:41 50.4 °F 40.2 °F 29.78 in South 0.4 mph 3.5 mph 68 % 0.00 in
21:46 50.4 °F 40.2 °F 29.78 in Calm   1.2 mph 68 % 0.00 in
21:51 50.2 °F 40.0 °F 29.78 in WSW 1.8 mph 2.3 mph 68 % 0.00 in
21:56 50.0 °F 39.8 °F 29.78 in WSW 0.2 mph 1.2 mph 68 % 0.00 in
22:02 49.9 °F 40.1 °F 29.77 in WSW 0.1 mph 1.2 mph 69 % 0.00 in
22:07 49.6 °F 39.8 °F 29.77 in WSW 0.8 mph 2.3 mph 69 % 0.00 in
22:12 49.4 °F 40.0 °F 29.78 in SW 2.1 mph 3.5 mph 70 % 0.00 in
22:17 49.1 °F 39.7 °F 29.78 in SW 0.6 mph 1.2 mph 70 % 0.00 in
22:22 48.7 °F 39.7 °F 29.78 in SW 1.8 mph 3.5 mph 71 % 0.00 in
22:27 48.4 °F 39.8 °F 29.77 in SW 0.8 mph 2.3 mph 72 % 0.00 in
22:32 48.2 °F 39.6 °F 29.78 in SW 0.8 mph 2.3 mph 72 % 0.00 in
22:37 47.9 °F 39.3 °F 29.77 in SW 1.1 mph 2.3 mph 72 % 0.00 in
22:42 47.7 °F 39.1 °F 29.77 in SW 1.4 mph 3.0 mph 72 % 0.00 in
22:47 47.6 °F 39.0 °F 29.77 in SW 1.1 mph 2.3 mph 72 % 0.00 in
22:53 47.4 °F 39.2 °F 29.77 in SW 1.2 mph 2.3 mph 73 % 0.00 in
22:58 47.3 °F 39.1 °F 29.77 in SW 1.3 mph 3.5 mph 73 % 0.00 in
23:03 47.2 °F 39.0 °F 29.77 in SW 2.6 mph 3.5 mph 73 % 0.00 in
23:08 47.0 °F 38.8 °F 29.77 in SW 1.8 mph 3.5 mph 73 % 0.00 in
23:13 46.9 °F 38.7 °F 29.76 in SW 1.9 mph 3.5 mph 73 % 0.00 in
23:18 46.8 °F 38.6 °F 29.76 in SW 1.1 mph 2.3 mph 73 % 0.00 in
23:23 46.7 °F 38.5 °F 29.76 in SSW 1.6 mph 3.0 mph 73 % 0.00 in
23:28 46.6 °F 38.8 °F 29.75 in SW 2.0 mph 3.5 mph 74 % 0.00 in
23:33 46.5 °F 38.7 °F 29.75 in SW 2.1 mph 3.5 mph 74 % 0.00 in
23:38 46.4 °F 38.6 °F 29.76 in SW 2.0 mph 3.5 mph 74 % 0.00 in
23:44 46.3 °F 38.5 °F 29.75 in SSW 2.2 mph 3.5 mph 74 % 0.00 in
23:49 46.3 °F 38.5 °F 29.75 in SSW 1.8 mph 3.5 mph 74 % 0.00 in
23:54 46.1 °F 38.3 °F 29.75 in SSW 2.0 mph 3.5 mph 74 % 0.00 in
23:59 46.1 °F 38.6 °F 29.75 in SW 2.8 mph 3.5 mph 75 % 0.00 in
Crab Meadow Weather
Compliments of Weather Underground - 2.75 mb

Script developed by  Jim McMurry - jmcmurry@mwt.net Adapted for the template by  Wim van der Kuil - Leuven-Template.eu

Weather Terms: Frost Advisory - Widespread frost during the growing season. Frost generally occurs with fair skies and light winds.